CheckWX is a tool to help pilots better visualize weather data.  It is not intended as a substitute for an official pre-flight weather briefing.

16:28:31 UTC

FAGG METAR
George Airport
George, South Africa
Current

29 mins ago

FAGG 211600Z 17006KT CAVOK 22/15 Q1011
Observed
Feb-21 @ 16:00 UTC
Wind
  • 170° at 6 KTS
Visibility
10,000+ meters
Flight Rules
VFR
Cloud Levels
  • Clear skies
Temperature
22°C / 72°F
Dewpoint
15°C / 59°F
Humidity
65%
Altimeter
29.85" Hg
Pressure
1010.92 hPa
Previous

1 hour ago

FAGG 211500Z 17005KT 130V200 CAVOK 24/16 Q1011
Observed
Feb-21 @ 15:00 UTC
Wind
  • 170° at 5 KTS
Visibility
10,000+ meters
Flight Rules
VFR
Cloud Levels
  • Clear skies
Temperature
24°C / 75°F
Dewpoint
16°C / 61°F
Humidity
61%
Altimeter
29.85" Hg
Pressure
1010.92 hPa
Previous

2 hours ago

FAGG 211400Z 18007KT 150V210 CAVOK 23/15 Q1012
Observed
Feb-21 @ 14:00 UTC
Wind
  • 180° at 7 KTS
Visibility
10,000+ meters
Flight Rules
VFR
Cloud Levels
  • Clear skies
Temperature
23°C / 73°F
Dewpoint
15°C / 59°F
Humidity
61%
Altimeter
29.88" Hg
Pressure
1011.92 hPa